CheckWX is a tool to help pilots better visualize weather data.  It is not intended as a substitute for an official pre-flight weather briefing.

12:45:58 UTC

KDCY METAR
Daviess County Airport
Washington, Indiana, USA
Current

31 mins ago

KDCY 181215Z AUTO 27008KT 10SM SCT021 OVC030 00/M04 A3017 RMK AO2 T10031040
Observed
Feb-18 @ 12:15 UTC
Wind
  • 270° at 8 KTS
Visibility
10 SM
Flight Rules
MVFR
Cloud Levels
  • Scattered at 2,100' AGL
  • Overcast at 3,000' AGL
Temperature
-0°C / 32°F
Dewpoint
-4°C / 25°F
Humidity
75%
Altimeter
30.17" Hg
Pressure
1021.72 hPa
Previous

51 mins ago

KDCY 181155Z AUTO 27010KT 10SM BKN021 BKN027 OVC042 00/M04 A3016 RMK AO2 T10041038 10002 21004
Observed
Feb-18 @ 11:55 UTC
Wind
  • 270° at 10 KTS
Visibility
10 SM
Flight Rules
MVFR
Cloud Levels
  • Broken at 2,100' AGL
  • Broken at 2,700' AGL
  • Overcast at 4,200' AGL
Temperature
-0°C / 32°F
Dewpoint
-4°C / 25°F
Humidity
75%
Altimeter
30.16" Hg
Pressure
1021.32 hPa
Previous

1 hour ago

KDCY 181135Z AUTO 26009KT 10SM BKN019 BKN033 OVC042 00/M03 A3015 RMK AO2 T10031035
Observed
Feb-18 @ 11:35 UTC
Wind
  • 260° at 9 KTS
Visibility
10 SM
Flight Rules
MVFR
Cloud Levels
  • Broken at 1,900' AGL
  • Broken at 3,300' AGL
  • Overcast at 4,200' AGL
Temperature
-0°C / 32°F
Dewpoint
-4°C / 25°F
Humidity
75%
Altimeter
30.15" Hg
Pressure
1021.02 hPa